createdAt,value
2018-09-28T00:00:36.474Z,87.70
2018-09-28T00:03:04.650Z,87.90
2018-09-28T00:05:32.864Z,87.80
2018-09-28T00:08:01.039Z,88.20
2018-09-28T00:10:29.334Z,88.20
2018-09-28T00:12:57.494Z,88.00
2018-09-28T00:15:25.779Z,88.20
2018-09-28T00:17:53.939Z,87.80
2018-09-28T00:20:22.091Z,88.70
2018-09-28T00:22:50.246Z,88.10
2018-09-28T00:25:18.427Z,88.20
2018-09-28T00:27:46.576Z,88.10
2018-09-28T00:30:14.730Z,88.30
2018-09-28T00:32:42.890Z,88.20
2018-09-28T00:35:11.050Z,88.00
2018-09-28T00:37:39.247Z,87.60
2018-09-28T00:40:07.423Z,87.30
2018-09-28T00:42:35.624Z,87.20
2018-09-28T00:45:03.775Z,87.50
2018-09-28T00:47:31.941Z,87.60
2018-09-28T00:50:00.086Z,87.80
2018-09-28T00:52:28.242Z,87.40
2018-09-28T00:54:56.541Z,87.80
2018-09-28T00:57:24.707Z,87.60
2018-09-28T00:59:52.882Z,87.50
2018-09-28T01:02:21.030Z,87.70
2018-09-28T01:04:49.199Z,87.70
2018-09-28T01:07:17.350Z,87.80
2018-09-28T01:09:45.556Z,87.60
2018-09-28T01:12:13.747Z,87.40
2018-09-28T01:14:41.927Z,87.90
2018-09-28T01:17:10.085Z,87.80
2018-09-28T01:19:38.250Z,88.00
2018-09-28T01:22:06.454Z,87.80
2018-09-28T01:24:34.615Z,88.00
2018-09-28T01:27:02.767Z,87.90
2018-09-28T01:29:30.950Z,88.10
2018-09-28T01:31:59.103Z,88.40
2018-09-28T01:34:27.426Z,88.50
2018-09-28T01:36:55.586Z,88.40
2018-09-28T01:39:23.754Z,88.00
2018-09-28T01:41:51.898Z,88.50
2018-09-28T01:44:20.111Z,88.80
2018-09-28T01:46:48.275Z,88.90
2018-09-28T01:49:16.463Z,89.30
2018-09-28T01:51:44.623Z,88.70
2018-09-28T01:54:12.786Z,88.70
2018-09-28T01:56:40.934Z,88.40
2018-09-28T01:59:09.095Z,88.20
2018-09-28T02:01:37.247Z,88.30
2018-09-28T02:04:05.407Z,88.30
2018-09-28T02:06:33.565Z,87.70
2018-09-28T02:09:01.749Z,88.20
2018-09-28T02:11:29.903Z,87.80
2018-09-28T02:13:58.065Z,88.20
2018-09-28T02:16:26.232Z,88.10
2018-09-28T02:18:54.431Z,87.80
2018-09-28T02:21:22.607Z,87.60
2018-09-28T02:23:50.779Z,87.60
2018-09-28T02:26:18.931Z,87.70
2018-09-28T02:28:47.094Z,87.90
2018-09-28T02:31:15.242Z,88.10
2018-09-28T02:33:43.406Z,88.20
2018-09-28T02:36:11.556Z,88.30
2018-09-28T02:38:39.723Z,88.40
2018-09-28T02:41:07.917Z,88.30
2018-09-28T02:43:36.063Z,88.10
2018-09-28T02:46:04.235Z,88.00
2018-09-28T02:48:32.387Z,88.20
2018-09-28T02:51:00.583Z,87.70
2018-09-28T02:53:28.784Z,87.70
2018-09-28T02:55:56.978Z,87.60
2018-09-28T02:58:25.134Z,87.60
2018-09-28T03:00:53.292Z,87.40
2018-09-28T03:03:21.434Z,87.80
2018-09-28T03:05:49.630Z,87.60
2018-09-28T03:08:17.787Z,87.80
2018-09-28T03:10:45.951Z,87.50
2018-09-28T03:13:14.111Z,87.90
2018-09-28T03:15:42.279Z,87.60
2018-09-28T03:18:10.454Z,87.80
2018-09-28T03:20:38.610Z,87.80
2018-09-28T03:23:06.762Z,87.80
2018-09-28T03:25:34.956Z,87.80
2018-09-28T03:28:03.120Z,87.60
2018-09-28T03:30:31.292Z,87.80
2018-09-28T03:32:59.498Z,87.60
2018-09-28T03:35:27.694Z,88.00
2018-09-28T03:37:55.842Z,88.40
2018-09-28T03:40:24.073Z,87.80
2018-09-28T03:42:52.183Z,87.90
2018-09-28T03:45:20.348Z,88.00
2018-09-28T03:47:49.358Z,88.00
2018-09-28T03:50:17.636Z,87.80
2018-09-28T03:52:45.798Z,87.90
2018-09-28T03:55:14.287Z,88.00
2018-09-28T03:57:42.459Z,88.30
2018-09-28T04:00:11.268Z,88.30
2018-09-28T04:02:40.179Z,88.30
2018-09-28T04:05:08.363Z,88.30
2018-09-28T04:07:37.131Z,88.10
2018-09-28T04:10:06.200Z,88.40
2018-09-28T04:12:34.463Z,88.40
2018-09-28T04:15:02.759Z,88.50
2018-09-28T04:17:30.901Z,88.80
2018-09-28T04:19:59.282Z,88.70
2018-09-28T04:22:27.454Z,88.60
2018-09-28T04:24:55.606Z,88.80
2018-09-28T04:27:23.770Z,88.70
2018-09-28T04:29:51.922Z,88.60
2018-09-28T04:32:20.128Z,88.90
2018-09-28T04:34:48.298Z,89.00
2018-09-28T04:37:16.476Z,89.00
2018-09-28T04:39:44.644Z,89.10
2018-09-28T04:42:12.811Z,88.50
2018-09-28T04:44:40.971Z,88.90
2018-09-28T04:47:09.135Z,88.70
2018-09-28T04:49:37.315Z,88.60
2018-09-28T04:52:05.518Z,88.50
2018-09-28T04:54:33.691Z,88.60
2018-09-28T04:57:01.846Z,88.30
2018-09-28T04:59:30.011Z,88.80
2018-09-28T05:01:58.330Z,88.80
2018-09-28T05:04:26.482Z,88.70
2018-09-28T05:06:54.675Z,88.60
2018-09-28T05:09:22.867Z,88.70
2018-09-28T05:11:51.042Z,88.90
2018-09-28T05:14:19.271Z,89.90
2018-09-28T05:16:47.438Z,89.70
2018-09-28T05:19:15.600Z,89.70
2018-09-28T05:21:43.767Z,89.80
2018-09-28T05:24:11.923Z,89.90
2018-09-28T05:26:40.089Z,90.10
2018-09-28T05:29:09.123Z,89.90
2018-09-28T05:31:37.366Z,90.00
2018-09-28T05:34:05.467Z,90.00
2018-09-28T05:36:33.637Z,90.10
2018-09-28T05:39:01.819Z,90.30
2018-09-28T05:41:30.015Z,90.30
2018-09-28T05:43:58.227Z,90.30
2018-09-28T05:46:26.517Z,90.30
2018-09-28T05:48:54.614Z,90.30
2018-09-28T05:51:22.834Z,90.30
2018-09-28T05:53:50.966Z,90.60
2018-09-28T05:56:19.146Z,90.60
2018-09-28T05:58:52.554Z,90.80
2018-09-28T06:01:26.242Z,90.60
2018-09-28T06:03:59.928Z,90.70
2018-09-28T06:06:28.127Z,90.70
2018-09-28T06:08:56.295Z,90.70
2018-09-28T06:11:24.462Z,90.70
2018-09-28T06:13:52.704Z,90.80
2018-09-28T06:16:20.906Z,90.60
2018-09-28T06:18:49.110Z,90.30
2018-09-28T06:21:17.283Z,90.10
2018-09-28T06:23:45.492Z,90.10
2018-09-28T06:26:13.630Z,89.50
2018-09-28T06:28:41.822Z,89.20
2018-09-28T06:31:10.011Z,88.30
2018-09-28T06:33:38.199Z,88.30
2018-09-28T06:36:06.418Z,88.00
2018-09-28T06:38:34.568Z,87.60
2018-09-28T06:41:03.730Z,87.50
2018-09-28T06:43:31.907Z,87.90
2018-09-28T06:46:00.079Z,87.60
2018-09-28T06:48:28.264Z,86.70
2018-09-28T06:50:56.475Z,86.30
2018-09-28T06:53:24.676Z,86.50
2018-09-28T06:55:52.850Z,86.20
2018-09-28T06:58:21.416Z,86.30
2018-09-28T07:00:49.471Z,85.50
2018-09-28T07:03:17.655Z,84.90
2018-09-28T07:05:45.835Z,85.00
2018-09-28T07:08:14.007Z,84.30
2018-09-28T07:10:42.182Z,84.60
2018-09-28T07:13:10.366Z,83.80
2018-09-28T07:15:38.540Z,83.50
2018-09-28T07:18:06.773Z,84.20
2018-09-28T07:20:34.922Z,83.00
2018-09-28T07:23:03.099Z,84.50
2018-09-28T07:25:31.312Z,81.60
2018-09-28T07:27:59.553Z,81.70
2018-09-28T07:30:27.756Z,81.70
2018-09-28T07:32:55.947Z,81.10
2018-09-28T07:35:24.161Z,81.20
2018-09-28T07:37:52.346Z,80.80
2018-09-28T07:40:20.602Z,80.80
2018-09-28T07:42:48.799Z,80.90
2018-09-28T07:45:17.015Z,80.70
2018-09-28T07:47:45.503Z,80.50
2018-09-28T07:50:13.711Z,80.90
2018-09-28T07:52:41.873Z,80.30
2018-09-28T07:55:10.615Z,80.60
2018-09-28T07:57:38.806Z,80.10
2018-09-28T08:00:07.023Z,79.90
2018-09-28T08:02:35.267Z,79.00
2018-09-28T08:05:03.560Z,77.90
2018-09-28T08:07:31.735Z,78.00
2018-09-28T08:09:59.930Z,78.30
2018-09-28T08:12:28.129Z,78.30
2018-09-28T08:14:56.506Z,77.80
2018-09-28T08:17:24.700Z,78.40
2018-09-28T08:19:52.891Z,76.60
2018-09-28T08:22:21.079Z,77.10
2018-09-28T08:24:49.328Z,75.90
2018-09-28T08:27:17.620Z,76.10
2018-09-28T08:29:45.806Z,76.50
2018-09-28T08:32:14.015Z,74.80
2018-09-28T08:34:42.203Z,73.60
2018-09-28T08:37:10.415Z,73.40
2018-09-28T08:39:38.744Z,72.70
2018-09-28T08:42:07.624Z,73.00
2018-09-28T08:44:35.846Z,73.90
2018-09-28T08:47:04.027Z,73.40
2018-09-28T08:49:32.219Z,73.30
2018-09-28T08:52:00.403Z,74.00
2018-09-28T08:54:28.595Z,73.50
2018-09-28T08:56:57.066Z,73.70
2018-09-28T08:59:25.354Z,72.90
2018-09-28T09:01:53.539Z,71.90
2018-09-28T09:04:21.723Z,70.00
2018-09-28T09:06:50.370Z,71.50
2018-09-28T09:09:18.558Z,70.80
2018-09-28T09:11:46.747Z,71.40
2018-09-28T09:14:15.006Z,69.90
2018-09-28T09:16:43.145Z,70.20
2018-09-28T09:19:11.393Z,70.40
2018-09-28T09:21:39.727Z,71.00
2018-09-28T09:24:07.920Z,71.40
2018-09-28T09:26:36.111Z,70.60
2018-09-28T09:29:04.291Z,70.30
2018-09-28T09:31:32.506Z,71.30
2018-09-28T09:34:00.683Z,70.80
2018-09-28T09:36:28.884Z,69.60
2018-09-28T09:38:57.046Z,69.00
2018-09-28T09:41:25.225Z,69.80
2018-09-28T09:43:53.398Z,68.70
2018-09-28T09:46:21.583Z,68.10
2018-09-28T09:48:49.774Z,67.20
2018-09-28T09:51:17.955Z,66.80
2018-09-28T09:53:46.115Z,66.10
2018-09-28T09:56:14.320Z,64.90
2018-09-28T09:58:42.528Z,65.00
2018-09-28T10:01:14.959Z,64.70
2018-09-28T10:03:49.640Z,65.50
2018-09-28T10:06:17.819Z,64.40
2018-09-28T10:08:45.999Z,63.50
2018-09-28T10:11:14.166Z,63.30
2018-09-28T10:13:42.347Z,64.20
2018-09-28T10:16:10.527Z,62.40
2018-09-28T10:18:38.856Z,63.00
2018-09-28T10:21:07.219Z,61.70
2018-09-28T10:23:35.405Z,62.60
2018-09-28T10:26:03.583Z,61.80
2018-09-28T10:28:31.817Z,62.50
2018-09-28T10:30:59.998Z,62.30
2018-09-28T10:33:28.196Z,61.80
2018-09-28T10:35:56.358Z,61.40
2018-09-28T10:38:24.558Z,61.70
2018-09-28T10:40:52.865Z,61.30
2018-09-28T10:43:20.956Z,61.50
2018-09-28T10:45:49.366Z,61.20
2018-09-28T10:48:17.607Z,61.50
2018-09-28T10:50:45.811Z,62.30
2018-09-28T10:53:14.046Z,60.30
2018-09-28T10:55:42.226Z,59.90
2018-09-28T10:58:10.577Z,59.20
2018-09-28T11:00:38.839Z,56.90
2018-09-28T11:03:07.185Z,58.50
2018-09-28T11:05:35.500Z,57.80
2018-09-28T11:08:03.720Z,58.70
2018-09-28T11:10:31.947Z,57.60
2018-09-28T11:13:00.167Z,57.10
2018-09-28T11:15:28.652Z,57.20
2018-09-28T11:17:56.907Z,57.20
2018-09-28T11:20:25.590Z,55.80
2018-09-28T11:22:53.902Z,56.40
2018-09-28T11:25:22.112Z,57.20
2018-09-28T11:27:50.373Z,57.40
2018-09-28T11:30:18.638Z,55.30
2018-09-28T11:32:47.267Z,54.90
2018-09-28T11:35:15.583Z,54.30
2018-09-28T11:37:43.819Z,54.20
2018-09-28T11:40:11.943Z,54.30
2018-09-28T11:42:40.541Z,55.00
2018-09-28T11:45:08.884Z,53.80
2018-09-28T11:47:37.239Z,52.80
2018-09-28T11:50:06.258Z,55.70
2018-09-28T11:52:34.443Z,54.60
2018-09-28T11:55:02.902Z,53.10
2018-09-28T11:57:31.841Z,50.60
2018-09-28T12:00:00.684Z,49.20
2018-09-28T12:02:28.862Z,49.60
2018-09-28T12:04:57.185Z,51.70
2018-09-28T12:07:25.346Z,53.40
2018-09-28T12:09:53.550Z,53.70
2018-09-28T12:12:22.061Z,53.30
2018-09-28T12:14:50.159Z,53.40
2018-09-28T12:17:18.354Z,53.40
2018-09-28T12:19:46.919Z,54.40
2018-09-28T12:22:15.855Z,54.50
2018-09-28T12:24:44.470Z,54.20
2018-09-28T12:27:12.941Z,57.10
2018-09-28T12:29:41.277Z,54.40
2018-09-28T12:32:09.482Z,52.80
2018-09-28T12:34:37.664Z,52.80
2018-09-28T12:37:06.169Z,51.00
2018-09-28T12:39:34.833Z,51.10
2018-09-28T12:42:02.964Z,50.90
2018-09-28T12:44:31.263Z,50.80
2018-09-28T12:46:59.521Z,50.30
2018-09-28T12:49:28.071Z,51.10
2018-09-28T12:51:56.399Z,52.30
2018-09-28T12:54:24.705Z,51.10
2018-09-28T12:56:52.990Z,51.60
2018-09-28T12:59:21.171Z,50.90
2018-09-28T13:01:49.443Z,51.30
2018-09-28T13:04:18.684Z,50.40
2018-09-28T13:06:48.562Z,49.70
2018-09-28T13:09:16.765Z,51.90
2018-09-28T13:11:45.328Z,50.20
2018-09-28T13:14:13.736Z,50.20
2018-09-28T13:16:42.267Z,47.60
2018-09-28T13:19:10.663Z,47.60
2018-09-28T13:21:39.457Z,46.80
2018-09-28T13:24:07.634Z,47.50
2018-09-28T13:26:35.826Z,47.80
2018-09-28T13:29:05.313Z,48.10
2018-09-28T13:31:33.426Z,47.90
2018-09-28T13:34:01.629Z,46.60
2018-09-28T13:36:29.834Z,46.50
2018-09-28T13:38:58.098Z,47.30
2018-09-28T13:41:26.256Z,46.80
2018-09-28T13:43:54.631Z,46.60
2018-09-28T13:46:22.960Z,47.10
2018-09-28T13:48:51.251Z,47.60
2018-09-28T13:51:19.517Z,47.20
2018-09-28T13:53:47.837Z,46.80
2018-09-28T13:56:16.048Z,46.80
2018-09-28T13:58:44.259Z,45.20
2018-09-28T14:01:12.387Z,46.20
2018-09-28T14:03:40.612Z,45.80
2018-09-28T14:06:08.861Z,46.90
2018-09-28T14:08:37.221Z,46.40
2018-09-28T14:11:05.398Z,46.00
2018-09-28T14:13:34.165Z,45.20
2018-09-28T14:16:02.358Z,45.50
2018-09-28T14:18:30.594Z,45.90
2018-09-28T14:20:58.751Z,45.40
2018-09-28T14:23:26.947Z,46.00
2018-09-28T14:25:55.143Z,46.50
2018-09-28T14:28:23.387Z,46.10
2018-09-28T14:30:51.697Z,47.00
2018-09-28T14:33:19.863Z,46.50
2018-09-28T14:35:48.068Z,46.80
2018-09-28T14:38:16.302Z,45.80
2018-09-28T14:40:44.525Z,47.20
2018-09-28T14:43:12.668Z,47.90
2018-09-28T14:45:40.866Z,49.20
2018-09-28T14:48:09.103Z,46.80
2018-09-28T14:50:37.295Z,46.20
2018-09-28T14:53:05.403Z,46.10
2018-09-28T14:55:33.643Z,45.60
2018-09-28T14:58:01.839Z,45.20
2018-09-28T15:00:30.055Z,47.60
2018-09-28T15:02:58.370Z,47.40
2018-09-28T15:05:26.627Z,46.50
2018-09-28T15:07:54.808Z,46.50
2018-09-28T15:10:23.220Z,46.90
2018-09-28T15:12:51.292Z,47.90
2018-09-28T15:15:19.542Z,48.60
2018-09-28T15:17:47.700Z,48.50
2018-09-28T15:20:15.906Z,47.50
2018-09-28T15:22:44.083Z,48.40
2018-09-28T15:25:12.264Z,48.20
2018-09-28T15:27:40.443Z,49.50
2018-09-28T15:30:08.927Z,49.50
2018-09-28T15:32:37.271Z,50.50
2018-09-28T15:35:05.759Z,50.40
2018-09-28T15:37:33.975Z,50.00
2018-09-28T15:40:02.181Z,48.80
2018-09-28T15:42:30.362Z,51.30
2018-09-28T15:44:58.959Z,52.00
2018-09-28T15:47:27.183Z,50.50
2018-09-28T15:49:55.394Z,51.50
2018-09-28T15:52:23.652Z,53.10
2018-09-28T15:54:51.880Z,51.70
2018-09-28T15:57:20.092Z,52.80
2018-09-28T15:59:48.291Z,53.90
2018-09-28T16:02:16.492Z,54.80
2018-09-28T16:04:44.687Z,55.30
2018-09-28T16:07:12.863Z,56.40
2018-09-28T16:09:41.071Z,56.80
2018-09-28T16:12:09.493Z,56.70
2018-09-28T16:14:37.674Z,58.30
2018-09-28T16:17:05.911Z,57.40
2018-09-28T16:19:34.144Z,57.50
2018-09-28T16:22:02.352Z,57.90
2018-09-28T16:24:30.619Z,58.10
2018-09-28T16:26:59.114Z,58.50
2018-09-28T16:29:27.352Z,58.00
2018-09-28T16:31:55.576Z,58.40
2018-09-28T16:34:23.755Z,57.00
2018-09-28T16:36:52.215Z,57.80
2018-09-28T16:39:20.444Z,60.00
2018-09-28T16:41:48.643Z,59.70
2018-09-28T16:44:16.954Z,61.10
2018-09-28T16:46:45.194Z,60.90
2018-09-28T16:49:13.374Z,61.80
2018-09-28T16:51:41.569Z,62.90
2018-09-28T16:54:09.757Z,63.00
2018-09-28T16:56:37.985Z,63.70
2018-09-28T16:59:06.379Z,64.20
2018-09-28T17:01:34.591Z,64.40
2018-09-28T17:04:02.809Z,65.10
2018-09-28T17:06:31.015Z,64.80
2018-09-28T17:08:59.213Z,65.40
2018-09-28T17:11:27.407Z,65.70
2018-09-28T17:13:55.587Z,65.60
2018-09-28T17:16:23.790Z,66.20
2018-09-28T17:18:51.987Z,66.50
2018-09-28T17:21:20.175Z,67.10
2018-09-28T17:23:48.360Z,67.00
2018-09-28T17:26:16.571Z,68.00
2018-09-28T17:28:44.901Z,68.30
2018-09-28T17:31:13.061Z,67.00
2018-09-28T17:33:41.243Z,68.50
2018-09-28T17:36:09.447Z,68.60
2018-09-28T17:38:37.856Z,67.90
2018-09-28T17:41:06.093Z,66.40
2018-09-28T17:43:34.296Z,65.80
2018-09-28T17:46:02.474Z,64.50
2018-09-28T17:48:30.635Z,63.10
2018-09-28T17:50:58.799Z,63.80
2018-09-28T17:53:26.971Z,61.80
2018-09-28T17:55:55.139Z,63.70
2018-09-28T17:58:23.315Z,63.30
2018-09-28T18:00:51.610Z,62.50
2018-09-28T18:03:19.802Z,62.60
2018-09-28T18:05:48.040Z,61.80
2018-09-28T18:08:16.169Z,63.00
2018-09-28T18:10:44.331Z,62.50
2018-09-28T18:13:12.507Z,61.30
2018-09-28T18:15:40.714Z,61.60
2018-09-28T18:18:08.919Z,61.10
2018-09-28T18:20:37.087Z,61.50
2018-09-28T18:23:05.480Z,62.50
2018-09-28T18:25:33.663Z,62.90
2018-09-28T18:28:02.027Z,63.30
2018-09-28T18:30:30.228Z,62.60
2018-09-28T18:32:58.412Z,63.60
2018-09-28T18:35:26.593Z,62.60
2018-09-28T18:37:54.783Z,63.30
2018-09-28T18:40:22.991Z,64.00
2018-09-28T18:42:51.175Z,64.40
2018-09-28T18:45:19.358Z,65.00
2018-09-28T18:47:47.559Z,64.60
2018-09-28T18:50:15.895Z,65.90
2018-09-28T18:52:44.144Z,66.30
2018-09-28T18:55:12.396Z,66.10
2018-09-28T18:57:40.724Z,65.60
2018-09-28T19:00:09.019Z,66.90
2018-09-28T19:02:37.213Z,66.40
2018-09-28T19:05:05.473Z,66.30
2018-09-28T19:07:33.842Z,66.50
2018-09-28T19:10:02.144Z,67.20
2018-09-28T19:12:30.557Z,67.10
2018-09-28T19:14:58.779Z,68.20
2018-09-28T19:17:27.347Z,67.70
2018-09-28T19:19:55.692Z,67.30
2018-09-28T19:22:24.099Z,68.00
2018-09-28T19:24:52.349Z,66.70
2018-09-28T19:27:20.798Z,67.30
2018-09-28T19:29:49.119Z,67.80
2018-09-28T19:32:17.323Z,68.90
2018-09-28T19:34:45.538Z,69.30
2018-09-28T19:37:13.747Z,67.80
2018-09-28T19:39:43.507Z,68.20
2018-09-28T19:42:11.928Z,68.50
2018-09-28T19:44:41.743Z,68.30
2018-09-28T19:47:09.935Z,68.30
2018-09-28T19:49:38.107Z,68.60
2018-09-28T19:52:06.315Z,68.40
2018-09-28T19:54:34.634Z,67.40
2018-09-28T19:57:03.013Z,65.10
2018-09-28T19:59:31.624Z,63.70
2018-09-28T20:02:00.160Z,62.80
2018-09-28T20:04:28.454Z,63.40
2018-09-28T20:06:57.039Z,62.50
2018-09-28T20:09:25.604Z,62.30
2018-09-28T20:11:54.180Z,62.10
2018-09-28T20:14:22.621Z,62.80
2018-09-28T20:16:50.808Z,62.60
2018-09-28T20:19:19.023Z,63.20
2018-09-28T20:21:47.219Z,62.10
2018-09-28T20:24:15.398Z,62.80
2018-09-28T20:26:43.562Z,63.70
2018-09-28T20:29:11.735Z,64.00
2018-09-28T20:31:39.911Z,64.80
2018-09-28T20:34:08.083Z,65.30
2018-09-28T20:36:36.262Z,65.60
2018-09-28T20:39:08.262Z,65.70
2018-09-28T20:41:36.737Z,66.40
2018-09-28T20:44:04.923Z,66.50
2018-09-28T20:46:33.098Z,67.20
2018-09-28T20:49:01.385Z,67.30
2018-09-28T20:51:29.772Z,68.00
2018-09-28T20:53:58.261Z,68.30
2018-09-28T20:56:26.435Z,69.00
2018-09-28T20:58:54.664Z,69.20
2018-09-28T21:01:22.830Z,69.10
2018-09-28T21:03:51.107Z,69.60
2018-09-28T21:06:19.279Z,70.30
2018-09-28T21:08:47.555Z,70.60
2018-09-28T21:11:15.726Z,71.40
2018-09-28T21:13:43.924Z,71.20
2018-09-28T21:16:12.263Z,71.00
2018-09-28T21:18:40.661Z,70.90
2018-09-28T21:21:08.847Z,71.70
2018-09-28T21:23:37.186Z,72.00
2018-09-28T21:26:05.330Z,72.40
2018-09-28T21:28:33.577Z,72.50
2018-09-28T21:31:01.856Z,71.80
2018-09-28T21:33:30.102Z,72.30
2018-09-28T21:35:58.277Z,72.00
2018-09-28T21:38:26.466Z,72.20
2018-09-28T21:40:54.638Z,72.50
2018-09-28T21:43:22.812Z,73.20
2018-09-28T21:45:51.005Z,72.70
2018-09-28T21:48:19.175Z,72.90
2018-09-28T21:50:47.438Z,73.30
2018-09-28T21:53:15.623Z,73.30
2018-09-28T21:55:43.811Z,73.70
2018-09-28T21:58:11.975Z,74.10
2018-09-28T22:00:40.154Z,73.60
2018-09-28T22:03:09.165Z,73.80
2018-09-28T22:05:37.351Z,73.90
2018-09-28T22:08:05.515Z,73.90
2018-09-28T22:10:34.200Z,73.90
2018-09-28T22:13:02.404Z,73.60
2018-09-28T22:15:30.570Z,73.90
2018-09-28T22:17:58.875Z,73.50
2018-09-28T22:20:27.039Z,74.20
2018-09-28T22:22:55.189Z,74.40
2018-09-28T22:25:23.359Z,74.10
2018-09-28T22:27:51.514Z,74.40
2018-09-28T22:30:19.684Z,74.60
2018-09-28T22:32:47.835Z,74.30
2018-09-28T22:35:15.999Z,74.60
2018-09-28T22:37:44.163Z,74.40
2018-09-28T22:40:12.339Z,74.50
2018-09-28T22:42:40.516Z,74.60
2018-09-28T22:45:08.878Z,74.90
2018-09-28T22:47:37.088Z,74.80
2018-09-28T22:50:05.386Z,75.30
2018-09-28T22:52:33.803Z,75.30
2018-09-28T22:55:01.962Z,75.00
2018-09-28T22:57:30.123Z,75.20
2018-09-28T22:59:58.332Z,75.20
2018-09-28T23:02:26.498Z,75.70
2018-09-28T23:04:54.655Z,75.90
2018-09-28T23:07:22.810Z,76.00
2018-09-28T23:09:50.969Z,76.10
2018-09-28T23:12:19.130Z,75.70
2018-09-28T23:14:47.294Z,75.80
2018-09-28T23:17:15.458Z,75.80
2018-09-28T23:19:43.623Z,75.80
2018-09-28T23:22:11.821Z,75.70
2018-09-28T23:24:40.003Z,75.30
2018-09-28T23:27:08.155Z,75.10
2018-09-28T23:29:36.439Z,75.80
2018-09-28T23:32:04.607Z,76.30
2018-09-28T23:34:32.822Z,75.60
2018-09-28T23:37:00.995Z,75.80
2018-09-28T23:39:29.186Z,75.90
2018-09-28T23:41:57.364Z,76.30
2018-09-28T23:44:25.531Z,76.10
2018-09-28T23:46:53.706Z,75.90
2018-09-28T23:49:21.907Z,76.50
2018-09-28T23:51:50.473Z,76.20
2018-09-28T23:54:18.682Z,75.80
2018-09-28T23:56:47.138Z,76.10
2018-09-28T23:59:15.347Z,76.40
